Time;durP1;ratioP1;P1;durP2;ratioP2;P2;SDS_P1;SDS_P2;PMS_P1;PMS_P2;Temp;Humidity;BMP_temperature;BMP_pressure;BME280_temperature;BME280_humidity;BME280_pressure;Samples;Min_cycle;Max_cycle;Signal;HPM_P1;HPM_P2
2021/03/04 00:00:03;;;;;;;71.57;38.55;;;;;;;6.91;83.84;101198.88;5000021;28;20504;-63
2021/03/04 00:02:29;;;;;;;67.10;37.88;;;;;;;6.81;83.85;101200.09;4996347;28;20391;-63
2021/03/04 00:04:56;;;;;;;74.40;41.10;;;;;;;6.79;84.23;101203.34;4998462;28;20046;-63
2021/03/04 00:07:22;;;;;;;80.82;40.03;;;;;;;6.71;84.68;101205.53;4996453;28;20050;-62
2021/03/04 00:09:49;;;;;;;73.82;40.42;;;;;;;6.59;85.11;101205.78;4998759;28;20046;-63
2021/03/04 00:12:16;;;;;;;76.82;41.13;;;;;;;6.57;85.19;101209.06;4995702;28;20046;-62
2021/03/04 00:14:43;;;;;;;82.53;41.05;;;;;;;6.36;86.39;101208.84;4996533;28;20054;-63
2021/03/04 00:17:09;;;;;;;80.22;40.75;;;;;;;6.33;86.98;101201.97;4995490;28;20525;-61
2021/03/04 00:19:36;;;;;;;74.80;41.67;;;;;;;6.26;86.75;101201.56;4995374;28;20275;-63
2021/03/04 00:22:03;;;;;;;84.32;43.00;;;;;;;6.47;86.20;101200.13;4996101;28;20061;-63
2021/03/04 00:24:30;;;;;;;76.75;42.13;;;;;;;6.42;86.90;101193.91;4994253;28;20455;-61
2021/03/04 00:26:56;;;;;;;78.47;44.72;;;;;;;6.51;86.23;101188.41;4996636;28;20052;-62
2021/03/04 00:29:23;;;;;;;82.60;44.03;;;;;;;6.49;85.97;101184.91;4994155;28;20161;-62
2021/03/04 00:31:49;;;;;;;79.53;44.08;;;;;;;6.26;86.65;101187.16;4997664;28;20061;-63
2021/03/04 00:34:16;;;;;;;84.25;45.38;;;;;;;6.32;87.60;101179.84;4994282;28;20400;-63
2021/03/04 00:36:43;;;;;;;81.53;44.30;;;;;;;6.31;86.39;101180.66;4996091;28;20050;-62
2021/03/04 00:39:09;;;;;;;75.65;42.38;;;;;;;6.18;87.72;101192.66;4995682;28;20046;-63
2021/03/04 00:41:36;;;;;;;81.68;43.45;;;;;;;6.03;88.07;101174.94;4996162;28;20273;-63
2021/03/04 00:44:06;;;;;;;87.03;44.80;;;;;;;6.10;88.26;101179.53;4996985;28;20041;-61
2021/03/04 00:46:33;;;;;;;82.20;46.33;;;;;;;6.20;87.69;101179.25;4995206;28;20049;-62
2021/03/04 00:49:01;;;;;;;81.30;45.42;;;;;;;6.05;88.16;101175.88;4998216;28;20064;-63
2021/03/04 00:51:29;;;;;;;84.30;45.75;;;;;;;5.85;89.19;101177.38;4995267;28;20050;-63
2021/03/04 00:53:55;;;;;;;88.63;46.60;;;;;;;5.90;89.96;101172.53;5001009;28;20054;-61
2021/03/04 00:56:22;;;;;;;89.85;47.13;;;;;;;5.96;88.90;101165.25;4994209;28;20042;-63
2021/03/04 00:58:49;;;;;;;88.70;47.78;;;;;;;5.82;89.79;101160.31;4996901;28;20058;-61
2021/03/04 01:01:16;;;;;;;88.50;44.17;;;;;;;5.98;89.30;101161.13;4997159;28;20421;-58
2021/03/04 01:03:43;;;;;;;90.30;47.67;;;;;;;5.98;89.34;101161.13;4997514;28;20093;-60
2021/03/04 01:06:11;;;;;;;88.32;47.10;;;;;;;6.00;89.36;101165.47;4989455;28;20042;-63
2021/03/04 01:08:38;;;;;;;89.43;47.58;;;;;;;5.95;89.23;101158.44;4996229;28;20046;-61
2021/03/04 01:11:04;;;;;;;95.88;47.72;;;;;;;5.68;90.62;101156.16;4996111;28;20049;-63
2021/03/04 01:13:31;;;;;;;89.90;47.42;;;;;;;5.72;90.76;101152.09;4995103;28;20053;-62
2021/03/04 01:15:57;;;;;;;93.38;50.30;;;;;;;5.80;90.70;101154.25;4996019;28;20064;-59
2021/03/04 01:18:31;;;;;;;104.72;52.45;;;;;;;5.45;92.29;101144.75;4994002;28;20053;-63
2021/03/04 01:20:58;;;;;;;102.40;52.55;;;;;;;5.39;92.62;101149.53;4995805;28;20053;-59
2021/03/04 01:23:25;;;;;;;107.05;55.90;;;;;;;5.47;92.18;101143.19;4993398;28;20054;-63
2021/03/04 01:25:52;;;;;;;104.82;54.28;;;;;;;5.68;91.55;101130.75;4995962;28;20513;-63
2021/03/04 01:28:19;;;;;;;101.30;55.33;;;;;;;5.51;91.86;101129.88;4994925;28;20046;-63
2021/03/04 01:30:45;;;;;;;112.85;57.42;;;;;;;5.75;91.16;101132.81;4996235;28;20050;-58
2021/03/04 01:33:18;;;;;;;103.45;54.33;;;;;;;5.60;91.40;101132.91;4997704;28;20046;-62
2021/03/04 01:35:48;;;;;;;104.63;58.00;;;;;;;5.61;91.66;101133.78;4995700;28;20081;-63
2021/03/04 01:38:15;;;;;;;111.10;57.58;;;;;;;5.19;93.71;101129.81;4997246;28;20042;-63
2021/03/04 01:40:42;;;;;;;109.90;59.83;;;;;;;5.20;93.76;101116.31;4994983;28;20062;-62
2021/03/04 01:43:09;;;;;;;112.85;60.28;;;;;;;5.09;94.30;101121.69;4994165;28;20370;-63
2021/03/04 01:45:35;;;;;;;111.43;59.42;;;;;;;5.18;94.04;101117.91;4994515;28;20057;-63
2021/03/04 01:48:04;;;;;;;110.45;60.95;;;;;;;5.13;94.45;101114.22;4994535;28;20482;-63
2021/03/04 01:50:31;;;;;;;119.45;65.03;;;;;;;5.15;94.78;101112.66;4993999;28;20056;-62
2021/03/04 01:52:58;;;;;;;122.05;64.72;;;;;;;5.07;94.99;101118.19;4995498;28;20050;-61
2021/03/04 01:55:25;;;;;;;124.80;66.03;;;;;;;5.12;94.22;101105.75;4993177;28;20051;-61
2021/03/04 01:57:53;;;;;;;124.03;67.25;;;;;;;5.36;93.92;101109.63;4995441;28;20064;-63
2021/03/04 02:00:20;;;;;;;123.95;66.65;;;;;;;5.26;93.83;101097.19;4993643;28;20038;-61
2021/03/04 02:02:47;;;;;;;131.32;69.32;;;;;;;5.21;94.26;101101.16;4994727;28;20065;-61
2021/03/04 02:05:16;;;;;;;140.73;72.03;;;;;;;4.87;96.03;101097.59;4993250;28;20066;-61
2021/03/04 02:08:20;;;;;;;135.75;70.82;;;;;;;4.77;97.12;101094.56;4994264;28;20411;-63
2021/03/04 02:10:52;;;;;;;129.45;71.22;;;;;;;4.82;96.47;101089.75;4994789;28;20046;-61
2021/03/04 02:13:37;;;;;;;128.57;71.20;;;;;;;4.51;97.67;101084.63;4995438;28;20043;-63
2021/03/04 02:16:18;;;;;;;130.77;71.28;;;;;;;4.85;96.61;101080.63;4995862;28;20042;-61
2021/03/04 02:18:52;;;;;;;127.32;70.10;;;;;;;4.97;96.24;101077.88;4994821;28;20050;-63
2021/03/04 02:21:44;;;;;;;126.32;66.90;;;;;;;5.04;96.04;101082.50;4990546;23;20042;-55
2021/03/04 02:24:29;;;;;;;125.35;67.25;;;;;;;5.19;94.28;101079.03;4968587;28;20067;-61
2021/03/04 02:27:08;;;;;;;133.32;69.43;;;;;;;5.20;94.44;101079.13;4970916;28;20046;-61
2021/03/04 02:30:00;;;;;;;123.68;65.40;;;;;;;5.15;94.53;101082.22;4968702;28;20420;-53
2021/03/04 02:32:28;;;;;;;129.38;68.60;;;;;;;5.05;95.01;101075.75;4985907;28;20436;-59
2021/03/04 02:35:25;;;;;;;132.57;68.63;;;;;;;4.92;95.86;101076.75;4988108;28;20070;-56
2021/03/04 02:37:56;;;;;;;127.63;66.78;;;;;;;4.90;95.45;101067.31;4990001;28;20424;-57
2021/03/04 02:40:24;;;;;;;129.35;66.78;;;;;;;4.95;95.52;101066.78;4991661;28;20046;-53
2021/03/04 02:42:52;;;;;;;124.85;67.13;;;;;;;4.79;96.03;101062.53;4992285;28;20498;-65
2021/03/04 02:45:25;;;;;;;125.53;68.70;;;;;;;4.79;96.71;101057.44;4991377;28;20054;-62
2021/03/04 02:47:52;;;;;;;131.52;67.07;;;;;;;4.84;95.98;101058.56;4991648;28;20136;-58
2021/03/04 02:50:22;;;;;;;128.10;68.60;;;;;;;4.90;95.96;101057.16;4991517;28;20042;-59
2021/03/04 02:52:50;;;;;;;130.70;70.85;;;;;;;4.78;96.48;101040.47;4991695;28;20370;-55
2021/03/04 02:55:18;;;;;;;132.32;69.18;;;;;;;4.87;96.69;101041.78;4991267;28;20426;-56
2021/03/04 02:57:47;;;;;;;127.30;68.50;;;;;;;4.79;97.09;101041.34;4991475;28;20581;-56
2021/03/04 03:00:18;;;;;;;133.88;68.65;;;;;;;4.75;96.39;101044.50;4988080;28;20049;-55
2021/03/04 03:02:45;;;;;;;139.75;71.25;;;;;;;4.87;96.40;101044.31;4991853;28;20062;-57
2021/03/04 03:05:14;;;;;;;134.38;69.82;;;;;;;4.64;97.14;101038.88;4991197;28;20046;-58
2021/03/04 03:07:43;;;;;;;135.05;67.95;;;;;;;4.50;98.86;101044.84;4991605;28;20046;-56
2021/03/04 03:10:13;;;;;;;130.48;69.40;;;;;;;4.46;99.02;101042.91;4991186;28;20097;-57
2021/03/04 03:12:45;;;;;;;129.68;67.82;;;;;;;4.72;98.34;101049.44;4989361;28;20058;-53
2021/03/04 03:15:15;;;;;;;133.65;68.68;;;;;;;4.65;97.93;101052.41;4991023;28;20042;-60
2021/03/04 03:17:43;;;;;;;133.85;69.50;;;;;;;4.59;97.71;101045.34;4991220;28;20053;-54
2021/03/04 03:20:13;;;;;;;137.13;71.53;;;;;;;4.64;97.49;101043.06;4990650;28;20049;-56
2021/03/04 03:22:39;;;;;;;139.57;71.70;;;;;;;4.50;98.33;101039.75;4989098;28;20053;-58
2021/03/04 03:25:10;;;;;;;133.98;69.85;;;;;;;4.55;98.97;101038.34;4991097;28;20054;-59
2021/03/04 03:27:38;;;;;;;138.43;72.38;;;;;;;4.63;99.28;101034.59;4988467;28;20046;-56
2021/03/04 03:30:17;;;;;;;136.63;72.40;;;;;;;4.70;98.31;101031.56;4991101;28;20391;-56
2021/03/04 03:33:11;;;;;;;140.02;72.07;;;;;;;4.23;100.00;101016.28;4989141;28;20096;-54
2021/03/04 03:35:40;;;;;;;148.57;75.32;;;;;;;4.38;100.00;101026.38;4988506;28;20152;-55
2021/03/04 03:38:07;;;;;;;136.68;70.93;;;;;;;4.72;99.09;101037.63;4989872;28;20108;-58
2021/03/04 03:40:36;;;;;;;146.00;75.18;;;;;;;4.77;99.15;101041.28;4990144;28;20490;-52
2021/03/04 03:43:08;;;;;;;137.95;72.95;;;;;;;4.58;100.00;101039.41;4990199;28;20057;-56
2021/03/04 03:45:39;;;;;;;149.98;78.32;;;;;;;4.66;100.00;101034.72;4990852;28;20084;-60
2021/03/04 03:48:11;;;;;;;147.18;76.80;;;;;;;4.70;100.00;101049.34;4988378;28;20046;-57
2021/03/04 03:50:39;;;;;;;145.20;77.65;;;;;;;4.82;99.29;101047.47;4988513;28;20077;-55
2021/03/04 03:53:06;;;;;;;149.35;77.97;;;;;;;4.75;99.39;101049.59;4990377;28;20050;-58
2021/03/04 03:55:33;;;;;;;146.75;78.70;;;;;;;5.05;98.76;101038.56;4989609;28;20042;-55
2021/03/04 03:58:01;;;;;;;138.60;75.25;;;;;;;5.05;98.54;101037.69;4989694;28;20522;-54
2021/03/04 04:00:28;;;;;;;145.13;77.10;;;;;;;5.04;98.22;101036.81;4990004;28;20105;-57
2021/03/04 04:03:00;;;;;;;140.57;75.85;;;;;;;4.83;98.67;101045.81;4991860;28;20060;-50
2021/03/04 04:05:27;;;;;;;143.00;77.07;;;;;;;4.96;98.21;101050.75;4991092;28;20050;-51
2021/03/04 04:07:55;;;;;;;135.88;74.10;;;;;;;5.28;96.62;101047.41;4989689;28;20053;-62
2021/03/04 04:10:24;;;;;;;137.50;76.15;;;;;;;5.24;96.77;101045.47;4990058;28;20137;-57
2021/03/04 04:12:51;;;;;;;138.80;77.45;;;;;;;5.20;96.05;101030.88;4990529;28;20050;-54
2021/03/04 04:15:19;;;;;;;141.18;76.50;;;;;;;5.06;96.19;101031.81;4990430;28;20319;-50
2021/03/04 04:17:47;;;;;;;145.75;76.25;;;;;;;5.14;96.25;101033.09;4990221;28;20050;-54
2021/03/04 04:20:16;;;;;;;139.57;75.90;;;;;;;5.04;96.88;101041.91;4986963;28;20077;-52
2021/03/04 04:22:43;;;;;;;141.68;77.63;;;;;;;5.00;97.33;101037.44;4990516;28;20061;-58
2021/03/04 04:25:11;;;;;;;135.98;77.40;;;;;;;5.29;95.28;101036.44;4989982;28;20042;-53
2021/03/04 04:27:38;;;;;;;139.50;77.57;;;;;;;5.10;95.00;101026.13;4987752;28;20061;-55
2021/03/04 04:30:06;;;;;;;137.15;76.10;;;;;;;5.26;94.56;101020.16;4989977;28;20042;-52
2021/03/04 04:32:33;;;;;;;137.57;75.95;;;;;;;5.19;95.04;101025.72;4990445;28;20054;-60
2021/03/04 04:35:00;;;;;;;135.52;74.65;;;;;;;5.09;94.72;101032.00;4990422;28;20068;-58
2021/03/04 04:37:27;;;;;;;127.43;72.97;;;;;;;4.94;94.93;101032.03;4990766;28;20046;-51
2021/03/04 04:39:53;;;;;;;136.90;74.03;;;;;;;5.18;94.18;101024.00;4990433;28;20417;-56
2021/03/04 04:42:20;;;;;;;130.07;75.13;;;;;;;5.00;94.28;101023.88;4992111;28;20405;-60
2021/03/04 04:44:46;;;;;;;134.07;73.40;;;;;;;5.20;94.00;101030.00;4990514;28;20054;-55
2021/03/04 04:47:13;;;;;;;127.43;68.85;;;;;;;5.10;94.17;101029.53;4989739;28;20072;-64
2021/03/04 04:49:56;;;;;;;117.93;65.53;;;;;;;5.11;92.63;101032.94;4989382;28;20050;-60
2021/03/04 04:52:26;;;;;;;112.78;63.00;;;;;;;5.00;92.49;101034.03;4987628;28;20046;-62
2021/03/04 04:54:53;;;;;;;115.80;60.40;;;;;;;4.92;93.08;101035.28;4991455;28;20042;-57
2021/03/04 04:57:21;;;;;;;114.30;61.38;;;;;;;4.81;92.46;101035.59;4989459;28;20471;-56
2021/03/04 04:59:49;;;;;;;111.40;59.28;;;;;;;4.79;93.06;101026.13;4989907;28;20049;-56
2021/03/04 05:02:16;;;;;;;110.13;58.50;;;;;;;4.91;92.37;101034.41;4988071;28;20057;-58
2021/03/04 05:04:42;;;;;;;108.85;58.38;;;;;;;4.82;92.14;101034.78;4989025;28;20050;-57
2021/03/04 05:07:09;;;;;;;107.32;58.55;;;;;;;4.68;92.72;101038.25;4989103;28;20092;-55
2021/03/04 05:09:35;;;;;;;109.63;58.97;;;;;;;4.91;91.48;101025.94;4988402;28;20069;-60
2021/03/04 05:12:02;;;;;;;106.78;56.38;;;;;;;4.72;92.13;101026.59;4989275;28;20430;-60
2021/03/04 05:14:30;;;;;;;108.32;52.80;;;;;;;4.59;92.14;101031.00;4989578;28;20285;-55
2021/03/04 05:16:56;;;;;;;101.75;52.47;;;;;;;4.73;92.38;101023.28;4989918;28;20502;-55
2021/03/04 05:19:23;;;;;;;109.25;52.28;;;;;;;4.52;92.58;101020.41;4989753;28;20116;-57
2021/03/04 05:21:52;;;;;;;107.32;52.75;;;;;;;4.36;92.97;101021.25;4988489;28;20125;-55
2021/03/04 05:24:19;;;;;;;110.07;54.15;;;;;;;4.40;93.46;101018.09;4987096;28;20045;-57
2021/03/04 05:26:47;;;;;;;105.20;52.95;;;;;;;4.53;93.38;101012.91;4987993;28;20058;-57
2021/03/04 05:29:13;;;;;;;106.93;53.47;;;;;;;4.37;93.54;101007.78;4984482;28;20046;-50
2021/03/04 05:31:40;;;;;;;102.13;52.22;;;;;;;4.50;93.46;101016.94;4988215;28;20421;-54
2021/03/04 05:34:07;;;;;;;112.32;52.70;;;;;;;4.56;93.50;101010.53;4987128;28;20414;-53
2021/03/04 05:36:33;;;;;;;112.80;54.40;;;;;;;4.46;92.30;101008.28;4988568;28;20101;-50
2021/03/04 05:39:01;;;;;;;103.38;53.92;;;;;;;4.24;93.59;101000.28;4988645;28;20046;-54
2021/03/04 05:41:29;;;;;;;107.57;51.70;;;;;;;4.51;93.44;101008.53;4987680;28;20049;-51
2021/03/04 05:43:56;;;;;;;106.45;52.88;;;;;;;4.25;93.20;101002.91;4989107;28;20068;-49
2021/03/04 05:46:23;;;;;;;103.70;51.08;;;;;;;4.41;93.18;101008.81;4988372;28;20388;-51
2021/03/04 05:48:51;;;;;;;108.88;51.22;;;;;;;4.35;93.90;101006.84;4988689;28;20050;-51
2021/03/04 05:51:25;;;;;;;103.00;50.67;;;;;;;4.58;92.61;101003.03;4987738;28;20137;-60
2021/03/04 05:53:59;;;;;;;107.63;53.05;;;;;;;4.36;93.56;101006.03;4989071;28;20415;-52
2021/03/04 05:56:26;;;;;;;104.13;50.80;;;;;;;4.65;92.72;101006.75;4987696;28;20125;-55
2021/03/04 05:58:54;;;;;;;111.32;50.85;;;;;;;4.58;92.48;101005.56;4988055;28;20056;-51
2021/03/04 06:01:20;;;;;;;111.47;51.20;;;;;;;4.10;93.79;100999.50;4988448;28;20529;-54
2021/03/04 06:03:47;;;;;;;106.28;51.40;;;;;;;4.34;92.88;101003.44;4988982;28;20042;-54
2021/03/04 06:06:15;;;;;;;112.80;52.80;;;;;;;4.16;93.32;101007.47;4985409;28;20066;-56
2021/03/04 06:08:42;;;;;;;110.93;51.95;;;;;;;4.17;93.85;101004.13;4988640;28;20049;-49
2021/03/04 06:11:08;;;;;;;110.45;50.88;;;;;;;4.15;95.41;101012.44;4988584;28;20065;-59
2021/03/04 06:13:35;;;;;;;107.88;51.55;;;;;;;4.41;93.42;101022.38;4991967;28;20434;-58
2021/03/04 06:16:12;;;;;;;106.13;51.80;;;;;;;3.98;94.20;101011.50;4989335;28;20050;-55
2021/03/04 06:18:43;;;;;;;117.25;54.92;;;;;;;3.66;97.07;101018.09;4988609;28;20066;-55
2021/03/04 06:21:27;;;;;;;107.93;51.47;;;;;;;4.29;94.78;101017.47;4990973;28;20409;-53
2021/03/04 06:23:57;;;;;;;102.50;48.63;;;;;;;4.33;93.24;101026.13;4990075;28;20042;-58
2021/03/04 06:26:29;;;;;;;106.15;49.42;;;;;;;4.17;93.59;101021.00;4991851;28;20120;-53
2021/03/04 06:28:56;;;;;;;108.65;51.10;;;;;;;4.35;92.75;101014.44;4993240;28;20077;-48
2021/03/04 06:31:23;;;;;;;104.13;48.70;;;;;;;4.42;92.98;101016.50;4990601;28;20134;-53
2021/03/04 06:33:50;;;;;;;104.70;47.03;;;;;;;4.24;93.70;101018.88;4990042;28;20129;-56
2021/03/04 06:36:18;;;;;;;100.38;48.22;;;;;;;4.05;93.48;101016.09;4989631;28;20068;-51
2021/03/04 06:38:55;;;;;;;97.50;45.33;;;;;;;4.09;93.82;101023.97;4983930;28;20066;-52
2021/03/04 06:41:23;;;;;;;109.00;48.83;;;;;;;4.27;92.73;101024.13;4987117;28;20050;-53
2021/03/04 06:44:00;;;;;;;101.63;46.63;;;;;;;4.17;92.61;101021.00;4991683;28;20062;-53
2021/03/04 06:46:26;;;;;;;96.40;46.03;;;;;;;4.15;92.73;101020.03;4991232;28;20058;-49
2021/03/04 06:48:54;;;;;;;100.38;48.58;;;;;;;4.32;92.81;101015.13;4989634;28;20064;-54
2021/03/04 06:51:20;;;;;;;106.68;50.50;;;;;;;4.16;92.02;101021.78;4990488;28;20054;-52
2021/03/04 06:53:52;;;;;;;110.88;53.00;;;;;;;4.51;91.02;101029.69;4987714;28;20046;-52
2021/03/04 06:56:31;;;;;;;108.88;50.08;;;;;;;4.19;92.21;101034.63;4985571;28;21636;-52
2021/03/04 06:59:02;;;;;;;96.15;45.42;;;;;;;4.37;91.28;101029.72;4988405;28;20046;-50
2021/03/04 07:01:29;;;;;;;95.93;45.88;;;;;;;4.24;92.28;101023.09;4988754;28;20121;-52
2021/03/04 07:03:59;;;;;;;95.22;45.80;;;;;;;4.64;90.62;101027.84;4990425;28;20096;-55
2021/03/04 07:06:36;;;;;;;94.45;45.42;;;;;;;4.14;92.47;101025.91;4990512;28;20052;-57
2021/03/04 07:09:04;;;;;;;98.60;44.95;;;;;;;4.21;92.06;101025.47;4990940;28;20120;-53
2021/03/04 07:11:35;;;;;;;93.10;44.67;;;;;;;4.30;91.58;101031.06;4990978;28;20038;-56
2021/03/04 07:14:04;;;;;;;89.78;42.25;;;;;;;4.15;92.19;101025.97;4984160;28;20146;-51
2021/03/04 07:16:42;;;;;;;95.47;42.90;;;;;;;4.03;91.94;101020.22;4989627;28;20054;-52
2021/03/04 07:19:14;;;;;;;85.70;40.53;;;;;;;4.45;90.19;101028.50;4989386;28;20506;-51
2021/03/04 07:21:44;;;;;;;91.60;41.42;;;;;;;4.32;90.71;101027.81;4988794;28;20421;-55
2021/03/04 07:24:11;;;;;;;88.38;40.92;;;;;;;4.42;90.73;101021.56;4989876;28;20049;-55
2021/03/04 07:26:38;;;;;;;87.18;40.40;;;;;;;4.60;89.21;101016.66;4988743;28;20050;-53
2021/03/04 07:29:12;;;;;;;81.13;37.10;;;;;;;4.52;88.61;101023.81;4988451;28;20081;-52
2021/03/04 07:31:45;;;;;;;89.72;40.33;;;;;;;4.36;89.63;101016.19;4990264;28;20418;-52
2021/03/04 07:34:14;;;;;;;90.60;38.75;;;;;;;4.34;88.88;101017.75;4990785;28;20561;-50
2021/03/04 07:36:50;;;;;;;83.70;38.08;;;;;;;4.15;90.52;101013.28;4989489;28;20070;-50
2021/03/04 07:39:30;;;;;;;81.70;37.30;;;;;;;4.23;89.09;101012.06;4989103;28;20128;-55
2021/03/04 07:41:57;;;;;;;80.07;36.60;;;;;;;4.43;89.60;101015.72;4988394;28;20069;-57
2021/03/04 07:44:30;;;;;;;79.75;36.25;;;;;;;4.67;88.77;101012.78;4967749;28;20962;-59
2021/03/04 07:47:01;;;;;;;74.70;35.28;;;;;;;4.63;87.53;101016.81;4989584;28;20522;-58
2021/03/04 07:49:36;;;;;;;78.53;36.90;;;;;;;4.51;88.31;101017.00;4988857;28;20085;-57
2021/03/04 07:52:10;;;;;;;78.80;35.75;;;;;;;4.53;88.59;101010.38;4986693;28;20634;-59
2021/03/04 07:54:38;;;;;;;70.28;34.33;;;;;;;4.54;87.94;101011.25;4984666;28;20050;-56
2021/03/04 07:57:08;;;;;;;70.65;33.65;;;;;;;4.62;87.59;101012.53;4979868;28;20171;-54
2021/03/04 08:00:02;;;;;;;69.82;32.88;;;;;;;4.72;86.47;101021.53;4983828;28;20533;-60
2021/03/04 08:02:32;;;;;;;64.10;32.97;;;;;;;4.46;88.48;101018.44;4984642;28;20038;-60
2021/03/04 08:05:13;;;;;;;70.32;32.88;;;;;;;4.31;88.02;101015.91;4985505;28;20502;-59
2021/03/04 08:07:45;;;;;;;70.63;34.30;;;;;;;4.28;89.29;101020.81;4985293;28;20064;-59
2021/03/04 08:10:12;;;;;;;70.60;32.63;;;;;;;4.46;88.68;101020.09;4989008;28;20050;-59
2021/03/04 08:13:01;;;;;;;73.63;33.30;;;;;;;4.50;88.86;101014.41;4988321;28;20054;-59
2021/03/04 08:15:40;;;;;;;68.32;31.45;;;;;;;4.25;88.70;101012.16;4989368;28;20039;-58
2021/03/04 08:18:21;;;;;;;64.10;31.42;;;;;;;4.40;89.53;101017.22;4987948;28;20157;-59
2021/03/04 08:20:50;;;;;;;61.10;29.67;;;;;;;4.41;88.32;101022.38;4987917;28;20050;-60
2021/03/04 08:23:18;;;;;;;64.95;31.75;;;;;;;4.23;89.55;101019.69;4991501;28;20376;-58
2021/03/04 08:25:45;;;;;;;62.15;29.85;;;;;;;4.64;87.63;101013.50;4986291;28;20058;-60
2021/03/04 08:28:27;;;;;;;64.45;30.60;;;;;;;4.33;89.55;101014.34;4984043;28;20129;-55
2021/03/04 08:30:55;;;;;;;60.97;28.80;;;;;;;4.40;87.60;101012.16;4985880;28;20046;-57
2021/03/04 08:33:25;;;;;;;66.05;32.13;;;;;;;4.12;88.66;101009.75;4985017;28;20053;-57
2021/03/04 08:35:55;;;;;;;56.13;26.73;;;;;;;4.26;88.13;101006.31;4984503;28;20063;-57
2021/03/04 08:38:24;;;;;;;61.83;28.35;;;;;;;4.31;87.45;101010.84;4985204;28;20748;-56
2021/03/04 08:40:53;;;;;;;68.03;29.75;;;;;;;4.31;87.39;101012.50;4984549;28;20588;-59
2021/03/04 08:43:22;;;;;;;59.63;27.00;;;;;;;4.51;86.72;101008.53;4985244;28;20061;-54
2021/03/04 08:45:57;;;;;;;56.00;26.85;;;;;;;4.39;87.35;101006.22;4985997;28;20129;-58
2021/03/04 08:48:24;;;;;;;56.88;26.85;;;;;;;4.11;87.64;101003.78;4983098;28;20488;-56
2021/03/04 08:51:00;;;;;;;62.70;25.88;;;;;;;4.06;87.31;100995.91;4985330;28;20093;-56
2021/03/04 08:53:32;;;;;;;66.28;30.90;;;;;;;4.17;87.88;101008.34;4983157;28;20077;-57
2021/03/04 08:56:01;;;;;;;57.42;24.23;;;;;;;4.27;86.00;101000.44;4983324;28;20058;-51
2021/03/04 08:58:30;;;;;;;53.15;24.98;;;;;;;4.34;86.59;101000.91;4980473;28;20112;-55
2021/03/04 09:01:00;;;;;;;50.88;24.35;;;;;;;4.15;86.96;100999.75;4983942;28;20046;-56
2021/03/04 09:03:28;;;;;;;57.53;25.08;;;;;;;4.34;85.75;100995.81;4984450;28;20050;-52
2021/03/04 09:06:05;;;;;;;52.72;25.05;;;;;;;4.42;86.08;100995.34;4984499;28;20053;-56
2021/03/04 09:08:40;;;;;;;50.65;23.73;;;;;;;4.64;84.73;100988.13;4982333;28;20306;-57
2021/03/04 09:11:09;;;;;;;48.40;21.58;;;;;;;4.40;84.20;100994.41;4980831;28;20487;-56
2021/03/04 09:13:37;;;;;;;52.58;23.23;;;;;;;4.60;84.87;100999.78;4987888;28;20081;-57
2021/03/04 09:16:07;;;;;;;52.53;24.17;;;;;;;4.50;83.56;100989.06;4980118;28;20550;-58
2021/03/04 09:18:45;;;;;;;50.90;22.90;;;;;;;4.65;83.26;100987.34;4985223;28;20054;-58
2021/03/04 09:21:15;;;;;;;50.33;23.55;;;;;;;4.76;81.97;100992.97;4983456;28;20449;-55
2021/03/04 09:23:42;;;;;;;47.17;22.52;;;;;;;4.92;81.39;100987.94;4985733;28;20134;-56
2021/03/04 09:26:09;;;;;;;51.95;25.05;;;;;;;4.82;82.49;100988.25;4985532;28;20054;-54
2021/03/04 09:28:39;;;;;;;48.45;23.52;;;;;;;4.80;82.44;100987.28;4982544;28;20061;-58
2021/03/04 09:31:14;;;;;;;50.75;23.02;;;;;;;5.10;82.13;100980.44;4982761;28;20052;-51
2021/03/04 09:33:43;;;;;;;50.67;23.77;;;;;;;5.11;82.06;100987.25;4966760;28;20054;-59
2021/03/04 09:36:10;;;;;;;48.88;24.48;;;;;;;4.95;83.70;100979.63;4982799;28;20061;-56
2021/03/04 09:38:38;;;;;;;52.70;24.85;;;;;;;4.78;84.06;100977.06;4985375;28;20470;-55
2021/03/04 09:41:16;;;;;;;50.10;24.98;;;;;;;4.97;82.70;100980.56;4984886;28;20050;-54
2021/03/04 09:44:10;;;;;;;54.38;25.10;;;;;;;4.42;83.45;100975.94;4977143;28;20050;-51
2021/03/04 09:46:45;;;;;;;46.90;23.00;;;;;;;5.04;81.67;100988.59;4981164;28;20050;-51
2021/03/04 09:49:16;;;;;;;48.38;21.50;;;;;;;4.98;81.40;100989.94;4983426;28;20513;-56
2021/03/04 09:51:45;;;;;;;42.58;20.75;;;;;;;4.69;82.31;100986.72;4983849;28;20054;-61
2021/03/04 09:54:24;;;;;;;39.95;21.45;;;;;;;4.89;81.84;100992.84;4984852;28;20460;-51
2021/03/04 09:57:09;;;;;;;48.97;22.33;;;;;;;4.81;81.61;100997.53;4984814;28;20128;-52
2021/03/04 09:59:53;;;;;;;46.30;22.67;;;;;;;4.67;82.59;100985.78;4984108;28;20046;-51
2021/03/04 10:02:26;;;;;;;45.63;21.65;;;;;;;4.64;82.30;100988.13;4980220;28;20560;-52
2021/03/04 10:05:00;;;;;;;45.53;22.02;;;;;;;4.67;82.72;100990.84;4984393;28;20179;-53
2021/03/04 10:07:28;;;;;;;42.88;21.35;;;;;;;4.65;82.63;100994.94;4984584;28;20433;-53
2021/03/04 10:09:56;;;;;;;43.33;21.27;;;;;;;5.00;80.71;100996.84;4984846;28;20148;-52
2021/03/04 10:12:33;;;;;;;45.47;21.55;;;;;;;4.47;82.08;100991.41;4979905;28;20406;-58
2021/03/04 10:15:00;;;;;;;47.60;23.40;;;;;;;4.87;81.43;100984.28;4983947;28;20046;-57
2021/03/04 10:17:27;;;;;;;48.38;20.08;;;;;;;4.95;81.42;100989.78;4983163;28;20452;-51
2021/03/04 10:19:54;;;;;;;44.67;21.73;;;;;;;4.61;82.84;101003.19;4984490;28;20105;-51
2021/03/04 10:22:20;;;;;;;44.00;20.98;;;;;;;4.82;82.26;100999.28;4982344;28;20061;-55
2021/03/04 10:24:47;;;;;;;45.75;20.70;;;;;;;4.70;81.20;100998.59;4987606;28;20409;-47
2021/03/04 10:27:20;;;;;;;46.17;21.60;;;;;;;4.88;81.20;100985.16;4985844;28;20046;-47
2021/03/04 10:29:46;;;;;;;44.60;21.00;;;;;;;4.66;82.21;100986.53;4986540;28;20042;-59
2021/03/04 10:32:13;;;;;;;40.20;21.17;;;;;;;4.85;82.46;100986.75;4983029;28;20057;-51
2021/03/04 10:34:39;;;;;;;43.47;23.10;;;;;;;4.79;82.64;100988.06;4985877;28;20077;-55
2021/03/04 10:37:06;;;;;;;45.78;21.85;;;;;;;5.04;81.30;100982.66;4983853;28;20046;-56
2021/03/04 10:39:33;;;;;;;51.08;23.13;;;;;;;4.87;82.33;100989.38;4983565;28;20462;-53
2021/03/04 10:41:59;;;;;;;46.55;22.58;;;;;;;5.21;81.12;100994.53;4983935;28;20533;-54
2021/03/04 10:44:26;;;;;;;44.60;21.02;;;;;;;5.10;80.46;100988.03;4985139;28;20130;-51
2021/03/04 10:46:52;;;;;;;43.13;22.77;;;;;;;5.07;80.62;100988.75;4985116;28;20065;-45
2021/03/04 10:49:19;;;;;;;44.63;22.40;;;;;;;5.24;79.71;100983.69;4985429;28;20081;-51
2021/03/04 10:51:46;;;;;;;45.45;22.05;;;;;;;5.19;79.19;100980.03;4983926;28;20056;-54
2021/03/04 10:54:15;;;;;;;48.80;22.73;;;;;;;5.10;79.72;100981.31;4983631;28;20043;-53
2021/03/04 10:56:41;;;;;;;48.72;24.00;;;;;;;4.92;81.45;100977.78;4984036;28;20053;-54
2021/03/04 10:59:09;;;;;;;42.45;21.35;;;;;;;5.21;79.11;100978.44;4985753;28;20056;-50
2021/03/04 11:01:36;;;;;;;42.85;20.92;;;;;;;5.26;78.64;100977.88;4987160;28;20057;-53
2021/03/04 11:04:03;;;;;;;45.05;20.58;;;;;;;5.26;79.98;100979.53;4984586;28;20104;-51
2021/03/04 11:06:29;;;;;;;44.03;22.23;;;;;;;5.16;79.99;100979.88;4985889;28;20141;-51
2021/03/04 11:08:56;;;;;;;42.05;22.10;;;;;;;5.00;81.16;100981.63;4987537;28;20046;-49
2021/03/04 11:11:22;;;;;;;40.20;20.95;;;;;;;5.05;80.90;100984.41;4987420;28;20050;-51
2021/03/04 11:13:49;;;;;;;43.47;20.75;;;;;;;5.51;78.43;100985.09;4985542;28;20506;-55
2021/03/04 11:16:16;;;;;;;43.80;21.10;;;;;;;5.29;77.60;100992.41;4981113;28;20506;-54
2021/03/04 11:18:43;;;;;;;40.55;19.40;;;;;;;5.60;76.11;100982.16;4989704;28;20076;-51
2021/03/04 11:21:09;;;;;;;41.67;19.77;;;;;;;5.60;75.94;100972.00;4988073;28;20050;-58
2021/03/04 11:23:36;;;;;;;37.45;19.50;;;;;;;5.74;75.95;100970.13;4986463;28;20427;-57
2021/03/04 11:26:03;;;;;;;42.70;20.77;;;;;;;5.73;75.60;100973.44;4984504;28;20046;-58